Time;durP1;ratioP1;P1;durP2;ratioP2;P2;SDS_P1;SDS_P2;PMS_P1;PMS_P2;Temp;Humidity;BMP_temperature;BMP_pressure;BME280_temperature;BME280_humidity;BME280_pressure;Samples;Min_cycle;Max_cycle;Signal;HPM_P1;HPM_P2
2024/02/21 06:00:27;;;;;;;9.23;4.00;;;6.00;85.10;;;;;;4986809;23;20033;31
2024/02/21 06:02:29;;;;;;;11.80;4.78;;;6.10;85.20;;;;;;4022661;29;20452;-79
2024/02/21 06:04:31;;;;;;;11.57;4.45;;;6.10;85.10;;;;;;4024252;29;20106;-79
2024/02/21 06:06:34;;;;;;;12.02;4.05;;;6.10;84.90;;;;;;4024428;29;20050;-79
2024/02/21 06:08:36;;;;;;;12.40;4.57;;;6.10;84.90;;;;;;4024432;29;20384;-79
2024/02/21 06:10:39;;;;;;;12.52;4.00;;;6.10;84.90;;;;;;4027564;29;20080;-79
2024/02/21 06:12:40;;;;;;;9.63;3.72;;;6.20;84.70;;;;;;4028500;29;20472;-78
2024/02/21 06:14:42;;;;;;;10.52;3.90;;;6.10;84.40;;;;;;4025986;29;20050;-79
2024/02/21 06:16:46;;;;;;;12.50;3.85;;;6.00;84.70;;;;;;4025771;29;20057;-79
2024/02/21 06:18:48;;;;;;;13.52;4.10;;;6.00;84.70;;;;;;4028337;29;20105;-79
2024/02/21 06:20:49;;;;;;;9.93;3.80;;;5.90;85.10;;;;;;4039688;29;20057;-79
2024/02/21 06:22:51;;;;;;;10.25;4.05;;;5.80;85.30;;;;;;4039523;29;20061;-80
2024/02/21 06:24:54;;;;;;;13.88;3.72;;;5.80;85.40;;;;;;4039510;29;20097;-78
2024/02/21 06:26:56;;;;;;;14.43;4.22;;;5.80;85.40;;;;;;4039004;29;20052;-79
2024/02/21 06:28:59;;;;;;;14.95;4.10;;;5.70;85.70;;;;;;4038801;29;20084;-78
2024/02/21 06:31:01;;;;;;;12.45;3.90;;;5.70;85.90;;;;;;4037768;29;20060;-81
2024/02/21 06:33:05;;;;;;;14.55;5.10;;;5.70;85.90;;;;;;4039000;29;20061;-79
2024/02/21 06:35:07;;;;;;;12.15;4.78;;;5.70;85.80;;;;;;4039290;29;20049;-79
2024/02/21 06:37:09;;;;;;;8.32;3.70;;;5.70;85.90;;;;;;4039368;29;20572;-79
2024/02/21 06:39:11;;;;;;;11.52;3.55;;;5.70;85.60;;;;;;4039218;29;20525;-79
2024/02/21 06:41:18;;;;;;;8.90;3.45;;;5.70;85.40;;;;;;4039227;29;20049;-79
2024/02/21 06:43:21;;;;;;;9.30;3.47;;;5.70;85.30;;;;;;4039091;29;20053;-80
2024/02/21 06:45:23;;;;;;;11.15;3.63;;;5.80;86.00;;;;;;4039115;29;20049;-79
2024/02/21 06:47:25;;;;;;;11.77;3.78;;;5.80;85.10;;;;;;4031942;29;20049;-78
2024/02/21 06:49:28;;;;;;;8.23;3.70;;;5.80;85.10;;;;;;4023481;29;20053;-79
2024/02/21 06:51:30;;;;;;;12.07;5.07;;;5.80;85.20;;;;;;4023801;29;20105;-78
2024/02/21 06:53:32;;;;;;;18.65;7.28;;;5.80;85.10;;;;;;4023567;29;20057;-79
2024/02/21 06:55:34;;;;;;;17.02;6.72;;;5.90;84.90;;;;;;4026220;29;20050;-78
2024/02/21 06:57:36;;;;;;;19.63;9.02;;;6.00;84.80;;;;;;4027860;29;20057;-79
2024/02/21 06:59:37;;;;;;;24.33;13.02;;;6.00;84.70;;;;;;4023799;29;20197;-78
2024/02/21 07:01:39;;;;;;;13.73;4.93;;;6.00;84.80;;;;;;4023325;29;20563;-79
2024/02/21 07:03:41;;;;;;;9.10;4.13;;;6.00;84.60;;;;;;4023448;29;20049;-81
2024/02/21 07:05:44;;;;;;;12.07;4.75;;;6.00;84.60;;;;;;4023324;29;20057;-78
2024/02/21 07:07:46;;;;;;;11.00;4.40;;;6.00;84.70;;;;;;4024427;29;20106;-78
2024/02/21 07:09:48;;;;;;;10.25;3.60;;;6.00;85.30;;;;;;4024295;29;20483;-78
2024/02/21 07:11:50;;;;;;;7.68;3.67;;;6.00;84.30;;;;;;4024329;29;20053;-78
2024/02/21 07:13:54;;;;;;;11.32;3.80;;;6.10;84.40;;;;;;4023898;29;20081;-77
2024/02/21 07:15:56;;;;;;;9.07;3.83;;;6.00;84.30;;;;;;4034098;29;20112;-80
2024/02/21 07:17:58;;;;;;;12.73;3.85;;;6.10;84.20;;;;;;4039119;29;20055;-78
2024/02/21 07:20:01;;;;;;;11.32;3.90;;;6.10;84.00;;;;;;4038776;29;20068;-79
2024/02/21 07:22:04;;;;;;;10.05;3.47;;;6.10;84.00;;;;;;4039068;29;20436;-79
2024/02/21 07:24:07;;;;;;;11.30;3.97;;;6.10;83.90;;;;;;4038912;29;20117;-79
2024/02/21 07:26:09;;;;;;;11.25;4.28;;;6.10;83.80;;;;;;4038230;29;20060;-77
2024/02/21 07:28:11;;;;;;;10.32;3.30;;;6.20;83.70;;;;;;4038795;29;20055;-80
2024/02/21 07:30:14;;;;;;;11.70;3.50;;;6.10;83.60;;;;;;4038460;29;20061;-77
2024/02/21 07:32:16;;;;;;;12.40;3.40;;;6.10;83.90;;;;;;4039046;29;20534;-79
2024/02/21 07:34:18;;;;;;;11.32;3.60;;;6.10;84.00;;;;;;4038555;29;20049;-77
2024/02/21 07:36:30;;;;;;;9.23;3.80;;;6.10;84.10;;;;;;4041675;29;20055;-78
2024/02/21 07:38:33;;;;;;;11.15;3.90;;;6.20;84.00;;;;;;4042779;29;20281;-78
2024/02/21 07:40:35;;;;;;;11.05;3.78;;;6.20;83.70;;;;;;4040670;29;20048;-79
2024/02/21 07:42:38;;;;;;;10.40;3.63;;;6.20;83.50;;;;;;4043141;29;20077;-79
2024/02/21 07:44:40;;;;;;;11.90;4.00;;;6.30;83.40;;;;;;4028332;29;20102;-78
2024/02/21 07:46:44;;;;;;;11.10;3.97;;;6.30;83.20;;;;;;4027207;29;20091;-78
2024/02/21 07:48:47;;;;;;;10.82;3.58;;;6.40;83.00;;;;;;4028513;29;20060;-78
2024/02/21 07:50:51;;;;;;;10.88;3.33;;;6.40;82.90;;;;;;4028259;29;20060;-79
2024/02/21 07:52:53;;;;;;;9.80;3.35;;;6.40;82.60;;;;;;4027882;29;20454;-79
2024/02/21 07:54:55;;;;;;;10.15;3.78;;;6.60;82.60;;;;;;4025786;29;20052;-78
2024/02/21 07:56:57;;;;;;;7.07;3.45;;;6.50;82.30;;;;;;4025662;29;20141;-78
2024/02/21 07:58:59;;;;;;;7.35;3.30;;;6.60;82.00;;;;;;4025890;29;20380;-79
2024/02/21 08:01:01;;;;;;;10.95;3.65;;;6.60;82.10;;;;;;4024970;29;20054;-79
2024/02/21 08:03:06;;;;;;;10.23;3.58;;;6.60;82.00;;;;;;4028385;29;20060;-78
2024/02/21 08:05:09;;;;;;;12.00;3.42;;;6.70;81.90;;;;;;4030873;29;20106;-80
2024/02/21 08:07:11;;;;;;;12.00;4.10;;;6.70;81.60;;;;;;4028771;29;20053;-78
2024/02/21 08:09:14;;;;;;;8.05;3.50;;;6.70;81.50;;;;;;4028377;29;20091;-78
2024/02/21 08:11:18;;;;;;;10.68;3.42;;;6.80;81.50;;;;;;4028242;29;20087;-78
2024/02/21 08:13:20;;;;;;;11.70;3.80;;;6.80;81.30;;;;;;4027668;29;20409;-79
2024/02/21 08:15:28;;;;;;;11.93;3.83;;;6.80;81.30;;;;;;4027952;29;20092;-80
2024/02/21 08:17:30;;;;;;;9.25;3.05;;;6.80;81.30;;;;;;4028038;29;20057;-78
2024/02/21 08:19:32;;;;;;;9.90;2.95;;;6.90;80.90;;;;;;4024993;29;20556;-80
2024/02/21 08:21:34;;;;;;;11.40;3.58;;;7.00;80.90;;;;;;4024389;29;20438;-76
2024/02/21 08:23:37;;;;;;;7.68;3.08;;;7.00;80.70;;;;;;4028307;29;20110;-77
2024/02/21 08:25:39;;;;;;;10.85;3.55;;;7.10;80.60;;;;;;4027526;29;20053;-77
2024/02/21 08:27:44;;;;;;;13.52;3.60;;;7.10;80.10;;;;;;4028204;29;20057;-78
2024/02/21 08:29:47;;;;;;;10.40;3.63;;;7.20;79.90;;;;;;4028243;29;20058;-77
2024/02/21 08:31:50;;;;;;;11.68;3.55;;;7.30;79.80;;;;;;4028104;29;20114;-77
2024/02/21 08:33:52;;;;;;;9.45;3.47;;;7.30;79.80;;;;;;4028533;29;20057;-78
2024/02/21 08:35:54;;;;;;;9.23;3.42;;;7.40;79.40;;;;;;4023780;29;20050;-78
2024/02/21 08:37:56;;;;;;;10.75;3.38;;;7.50;79.40;;;;;;4022921;29;20054;-79
2024/02/21 08:39:58;;;;;;;8.02;3.13;;;7.50;79.10;;;;;;4023275;29;20110;-79
2024/02/21 08:42:00;;;;;;;12.45;3.78;;;7.50;78.80;;;;;;4023095;29;20180;-79
2024/02/21 08:44:03;;;;;;;7.80;3.33;;;7.60;78.60;;;;;;4022703;29;20173;-79
2024/02/21 08:46:05;;;;;;;8.35;3.47;;;7.70;78.70;;;;;;4022939;29;20050;-77
2024/02/21 08:48:08;;;;;;;15.13;3.90;;;7.70;78.70;;;;;;4023077;29;20062;-79
2024/02/21 08:50:11;;;;;;;12.18;3.97;;;7.70;78.30;;;;;;4023244;29;20085;-80
2024/02/21 08:52:13;;;;;;;11.30;3.58;;;7.80;78.60;;;;;;4025148;29;20084;-77
2024/02/21 08:54:15;;;;;;;8.77;3.40;;;7.80;78.30;;;;;;4027087;29;20101;-80
2024/02/21 08:56:17;;;;;;;10.07;3.38;;;7.80;78.80;;;;;;4027086;29;20303;-78
2024/02/21 08:58:23;;;;;;;9.15;3.55;;;7.80;78.60;;;;;;4027430;29;20053;-78
2024/02/21 09:00:27;;;;;;;9.05;3.45;;;7.80;78.40;;;;;;4030416;29;20049;-78
2024/02/21 09:02:27;;;;;;;12.15;4.18;;;7.90;78.70;;;;;;4027056;29;20136;-77
2024/02/21 09:04:30;;;;;;;12.13;3.90;;;8.00;78.70;;;;;;4027175;29;20061;-77
2024/02/21 09:06:33;;;;;;;11.35;3.95;;;8.10;78.90;;;;;;4023746;29;20133;-79
2024/02/21 09:08:35;;;;;;;10.20;3.80;;;8.10;79.00;;;;;;4011756;29;20057;-78
2024/02/21 09:10:37;;;;;;;9.13;3.70;;;8.00;79.40;;;;;;4011649;29;20053;-78
2024/02/21 09:12:40;;;;;;;17.95;4.20;;;7.90;78.90;;;;;;4010720;29;20110;-79
2024/02/21 09:14:42;;;;;;;9.52;3.80;;;7.90;79.30;;;;;;4013795;29;20496;-79
2024/02/21 09:16:47;;;;;;;11.20;3.90;;;8.00;78.90;;;;;;4016465;29;20075;-78
2024/02/21 09:18:50;;;;;;;10.20;3.88;;;8.10;78.80;;;;;;4016256;29;20121;-78
2024/02/21 09:20:57;;;;;;;7.85;3.47;;;8.10;78.50;;;;;;4015151;29;20102;-77
2024/02/21 09:22:59;;;;;;;10.65;3.90;;;8.10;78.00;;;;;;4017528;29;20241;-79
2024/02/21 09:25:04;;;;;;;11.63;4.18;;;8.30;78.10;;;;;;4019012;29;20058;-79
2024/02/21 09:27:08;;;;;;;;;;;8.40;78.20;;;;;;4017404;29;20071;-77
2024/02/21 09:29:11;;;;;;;10.25;3.83;;;8.50;78.20;;;;;;4017137;29;19928;-78
2024/02/21 09:31:14;;;;;;;12.05;4.05;;;8.60;78.00;;;;;;4016136;29;20083;-77
2024/02/21 09:33:18;;;;;;;9.00;3.80;;;8.60;78.10;;;;;;4015909;29;20149;-78
2024/02/21 09:35:23;;;;;;;9.68;3.97;;;8.70;77.80;;;;;;4026354;29;20057;-79
2024/02/21 09:37:27;;;;;;;11.40;4.00;;;8.70;78.20;;;;;;4031797;29;20065;-78
2024/02/21 09:39:30;;;;;;;9.40;3.97;;;8.70;78.00;;;;;;4031408;29;20053;-77
2024/02/21 09:41:39;;;;;;;7.97;3.65;;;8.80;78.30;;;;;;4030076;29;20074;-78
2024/02/21 09:43:53;;;;;;;8.45;3.95;;;8.80;77.20;;;;;;4032488;29;20049;-77
2024/02/21 09:46:00;;;;;;;13.73;4.45;;;8.80;77.10;;;;;;4031197;29;20057;-76
2024/02/21 09:48:29;;;;;;;11.05;4.10;;;8.90;77.30;;;;;;4029319;29;20140;-78
2024/02/21 09:50:33;;;;;;;10.52;4.05;;;9.00;77.00;;;;;;4027367;29;20140;-76
2024/02/21 09:52:37;;;;;;;11.63;3.95;;;9.00;76.20;;;;;;4027282;29;20053;-76
2024/02/21 09:54:44;;;;;;;11.60;3.80;;;9.10;76.20;;;;;;4027629;29;20468;-78
2024/02/21 09:56:46;;;;;;;8.85;3.35;;;9.20;76.30;;;;;;4027218;29;20053;-76
2024/02/21 09:58:48;;;;;;;9.55;3.45;;;9.20;74.70;;;;;;4027202;29;20085;-77
2024/02/21 10:00:50;;;;;;;10.93;4.47;;;9.10;74.30;;;;;;4030175;29;20061;-78
2024/02/21 10:02:53;;;;;;;8.82;3.65;;;9.20;73.50;;;;;;4041115;29;20138;-77
2024/02/21 10:04:56;;;;;;;10.32;3.92;;;9.10;73.40;;;;;;4042657;29;20057;-78
2024/02/21 10:06:57;;;;;;;11.00;3.58;;;9.20;74.50;;;;;;4042396;29;20057;-76
2024/02/21 10:09:00;;;;;;;10.48;3.88;;;9.20;74.00;;;;;;4042694;29;20056;-77
2024/02/21 10:11:02;;;;;;;12.13;4.00;;;9.20;76.50;;;;;;4042746;29;20059;-77
2024/02/21 10:13:04;;;;;;;11.35;3.95;;;9.40;77.00;;;;;;4040781;29;20057;-79
2024/02/21 10:15:07;;;;;;;10.48;3.55;;;9.40;75.50;;;;;;4042185;29;20116;-78
2024/02/21 10:17:19;;;;;;;9.35;4.05;;;9.20;74.70;;;;;;4042579;29;20056;-77
2024/02/21 10:19:21;;;;;;;8.57;3.47;;;9.30;75.00;;;;;;4043018;29;20053;-78
2024/02/21 10:21:25;;;;;;;8.85;3.45;;;9.20;74.10;;;;;;4042428;29;20068;-77
2024/02/21 10:23:27;;;;;;;8.60;3.70;;;9.10;75.40;;;;;;4043044;29;20056;-78
2024/02/21 10:25:29;;;;;;;11.05;3.80;;;9.10;75.30;;;;;;4040867;29;20441;-79
2024/02/21 10:27:31;;;;;;;7.68;3.25;;;9.10;75.00;;;;;;4039945;29;20101;-79
2024/02/21 10:29:33;;;;;;;10.63;3.35;;;9.20;74.70;;;;;;4039538;29;20087;-81
2024/02/21 10:31:35;;;;;;;10.35;3.55;;;9.20;74.00;;;;;;4039738;29;20053;-79
2024/02/21 10:33:37;;;;;;;12.43;3.50;;;9.30;74.20;;;;;;4039535;29;20120;-76
2024/02/21 10:35:39;;;;;;;7.65;2.88;;;9.20;73.20;;;;;;4040164;29;20451;-76
2024/02/21 10:37:43;;;;;;;7.35;3.20;;;9.30;71.90;;;;;;4039630;29;20078;-80
2024/02/21 10:39:45;;;;;;;7.20;2.80;;;9.30;70.90;;;;;;4039686;29;20109;-79
2024/02/21 10:41:46;;;;;;;7.45;2.92;;;9.40;70.40;;;;;;4043132;29;20049;-79
2024/02/21 10:43:52;;;;;;;9.55;2.95;;;9.50;70.00;;;;;;4040626;29;20052;-78
2024/02/21 10:45:55;;;;;;;8.40;2.75;;;9.60;70.20;;;;;;4031472;29;20076;-81
2024/02/21 10:48:11;;;;;;;10.70;2.95;;;9.80;69.40;;;;;;4024347;29;20480;-78
2024/02/21 10:50:16;;;;;;;8.73;2.75;;;9.90;69.40;;;;;;4025390;29;20049;-80
2024/02/21 10:52:32;;;;;;;8.95;2.65;;;10.10;69.20;;;;;;4026998;29;20061;-78
2024/02/21 10:54:46;;;;;;;8.55;2.42;;;10.10;68.80;;;;;;4025124;29;20049;-79
2024/02/21 10:56:51;;;;;;;10.43;2.40;;;10.20;68.70;;;;;;4024599;29;20046;-78
2024/02/21 10:58:52;;;;;;;7.72;2.20;;;10.30;66.50;;;;;;4024667;29;20050;-78
2024/02/21 11:00:55;;;;;;;6.30;2.42;;;10.40;66.30;;;;;;4024491;29;20385;-79
2024/02/21 11:02:58;;;;;;;7.63;2.35;;;10.50;67.00;;;;;;4024365;29;20050;-78
2024/02/21 11:05:01;;;;;;;8.80;2.58;;;10.50;64.70;;;;;;4024487;29;20114;-79
2024/02/21 11:07:04;;;;;;;6.40;2.28;;;10.50;64.80;;;;;;4023005;29;20497;-80
2024/02/21 11:09:08;;;;;;;7.38;2.58;;;10.60;65.10;;;;;;4022839;29;20085;-79
2024/02/21 11:11:18;;;;;;;7.85;2.50;;;10.60;65.10;;;;;;4031923;29;20058;-78
2024/02/21 11:13:31;;;;;;;7.53;2.13;;;10.70;64.70;;;;;;4022761;29;20046;-81
2024/02/21 11:15:33;;;;;;;9.93;2.45;;;10.90;64.40;;;;;;4021241;29;20487;-78
2024/02/21 11:17:35;;;;;;;7.85;2.35;;;10.80;63.60;;;;;;4021414;29;20556;-79
2024/02/21 11:19:37;;;;;;;7.95;2.40;;;10.90;64.10;;;;;;4020948;29;20046;-79
2024/02/21 11:21:38;;;;;;;9.38;2.83;;;10.90;63.00;;;;;;4022507;29;20580;-77
2024/02/21 11:23:40;;;;;;;8.73;2.83;;;11.00;63.90;;;;;;4023428;29;20411;-77
2024/02/21 11:25:42;;;;;;;6.78;2.50;;;11.00;63.10;;;;;;4021758;29;20471;-76
2024/02/21 11:27:48;;;;;;;6.13;2.30;;;11.00;63.40;;;;;;4022708;29;20117;-77
2024/02/21 11:29:55;;;;;;;8.35;2.28;;;11.00;63.70;;;;;;4022048;29;20132;-77
2024/02/21 11:31:58;;;;;;;8.68;2.45;;;11.10;63.90;;;;;;4034889;29;20063;-79
2024/02/21 11:34:00;;;;;;;7.85;2.70;;;11.10;63.80;;;;;;4036451;29;20113;-79
2024/02/21 11:36:04;;;;;;;6.75;2.50;;;11.20;64.00;;;;;;4037852;29;20391;-78
2024/02/21 11:38:12;;;;;;;7.90;2.33;;;11.20;63.50;;;;;;4036547;29;20467;-78
2024/02/21 11:40:14;;;;;;;7.22;2.20;;;11.10;63.30;;;;;;4036270;29;20049;-80
2024/02/21 11:42:16;;;;;;;6.72;2.35;;;11.20;63.40;;;;;;4036090;29;20057;-78
2024/02/21 11:44:18;;;;;;;9.50;2.80;;;11.20;64.00;;;;;;4036585;29;20053;-78
2024/02/21 11:46:20;;;;;;;8.68;3.00;;;11.20;63.50;;;;;;4034875;29;20151;-78
2024/02/21 11:48:22;;;;;;;7.63;2.20;;;11.30;63.20;;;;;;4021223;29;20064;-79
2024/02/21 11:50:24;;;;;;;6.80;2.53;;;11.40;63.40;;;;;;4020555;29;20053;-78
2024/02/21 11:52:27;;;;;;;8.40;2.40;;;11.40;62.20;;;;;;4020764;29;20053;-79
2024/02/21 11:54:29;;;;;;;6.85;2.35;;;11.50;61.90;;;;;;4020350;29;20065;-79
2024/02/21 11:56:31;;;;;;;6.25;2.15;;;11.60;60.80;;;;;;4020559;29;20053;-79
2024/02/21 11:58:33;;;;;;;6.78;2.33;;;11.70;61.20;;;;;;4027068;29;20453;-78
2024/02/21 12:00:36;;;;;;;7.10;2.50;;;11.80;61.90;;;;;;4025189;29;20085;-76
2024/02/21 12:02:40;;;;;;;6.43;2.05;;;11.80;60.20;;;;;;4018728;29;20061;-75
2024/02/21 12:04:44;;;;;;;7.95;2.33;;;11.80;60.20;;;;;;4010776;29;20064;-79
2024/02/21 12:06:46;;;;;;;5.88;2.15;;;11.90;59.60;;;;;;4005006;29;20647;-79
2024/02/21 12:08:48;;;;;;;6.13;2.17;;;12.00;59.40;;;;;;4005081;29;20422;-77
2024/02/21 12:10:51;;;;;;;6.15;2.35;;;12.00;59.50;;;;;;4005213;29;20050;-78
2024/02/21 12:12:52;;;;;;;6.82;2.20;;;11.90;59.20;;;;;;4005180;29;20497;-77
2024/02/21 12:14:57;;;;;;;8.70;2.33;;;11.90;59.60;;;;;;4005215;29;20054;-78
2024/02/21 12:17:03;;;;;;;7.20;2.42;;;11.90;59.20;;;;;;4017710;29;20403;-78
2024/02/21 12:19:05;;;;;;;6.30;2.25;;;11.90;59.50;;;;;;4020239;29;20408;-80
2024/02/21 12:21:07;;;;;;;6.45;2.35;;;11.90;59.60;;;;;;4020380;29;20057;-79
2024/02/21 12:23:11;;;;;;;8.50;2.45;;;11.90;59.10;;;;;;4020351;29;20057;-80
2024/02/21 12:25:22;;;;;;;6.95;2.25;;;12.00;59.50;;;;;;4020409;29;20587;-77
2024/02/21 12:27:23;;;;;;;9.43;2.45;;;12.10;59.00;;;;;;4020025;29;20091;-79
2024/02/21 12:29:26;;;;;;;8.98;2.88;;;12.20;59.60;;;;;;4020342;29;20408;-79
2024/02/21 12:31:28;;;;;;;7.65;2.28;;;12.20;58.90;;;;;;4019963;29;20496;-79
2024/02/21 12:33:33;;;;;;;6.65;2.33;;;12.20;58.40;;;;;;4020317;29;20118;-77
2024/02/21 12:35:34;;;;;;;9.97;2.30;;;12.10;58.80;;;;;;4021485;29;20073;-79
2024/02/21 12:37:37;;;;;;;8.05;2.30;;;12.20;58.50;;;;;;4020541;29;20491;-79
2024/02/21 12:39:39;;;;;;;7.05;2.30;;;12.30;58.60;;;;;;4020335;29;20092;-79
2024/02/21 12:41:43;;;;;;;7.78;2.20;;;12.30;58.20;;;;;;4020419;29;20061;-78
2024/02/21 12:43:44;;;;;;;5.97;2.30;;;12.40;58.10;;;;;;4020195;29;20060;-78
2024/02/21 12:45:46;;;;;;;6.60;2.42;;;12.50;58.40;;;;;;4020498;29;20461;-77
2024/02/21 12:47:48;;;;;;;6.10;2.17;;;12.60;58.40;;;;;;4020092;29;20101;-80
2024/02/21 12:49:51;;;;;;;9.32;2.58;;;12.70;58.10;;;;;;4020288;29;20465;-79
2024/02/21 12:51:52;;;;;;;7.78;2.47;;;12.80;57.80;;;;;;4020210;29;20053;-79
2024/02/21 12:53:54;;;;;;;5.70;2.00;;;13.00;57.40;;;;;;4020177;29;20053;-79
2024/02/21 12:55:56;;;;;;;7.15;2.28;;;13.10;57.00;;;;;;4020113;29;20050;-80
2024/02/21 12:58:04;;;;;;;7.63;2.45;;;13.00;55.90;;;;;;4020348;29;20144;-79
2024/02/21 13:00:08;;;;;;;7.25;2.30;;;13.20;56.10;;;;;;4020133;29;20081;-76
2024/02/21 13:02:10;;;;;;;6.32;2.30;;;13.30;55.50;;;;;;4031645;29;20069;-76
2024/02/21 13:04:12;;;;;;;7.32;2.13;;;13.20;54.80;;;;;;4035770;29;20502;-77
2024/02/21 13:06:15;;;;;;;5.90;2.33;;;13.20;55.00;;;;;;4035785;29;20412;-78
2024/02/21 13:08:18;;;;;;;8.82;2.30;;;13.30;55.40;;;;;;4035559;29;20053;-79
2024/02/21 13:10:21;;;;;;;6.85;2.10;;;13.20;54.90;;;;;;4035734;29;20487;-78
2024/02/21 13:12:23;;;;;;;9.13;2.67;;;13.30;55.80;;;;;;4035545;29;20462;-79
2024/02/21 13:14:25;;;;;;;8.30;2.45;;;13.40;55.30;;;;;;4035268;29;20053;-77
2024/02/21 13:16:27;;;;;;;9.02;2.60;;;13.30;55.10;;;;;;4035359;29;20053;-79
2024/02/21 13:18:28;;;;;;;10.35;2.95;;;13.30;54.60;;;;;;4033391;29;20144;-78
2024/02/21 13:20:30;;;;;;;7.93;2.53;;;13.30;54.60;;;;;;4035479;29;20113;-78
2024/02/21 13:22:34;;;;;;;7.65;2.33;;;13.40;54.10;;;;;;4035398;29;20059;-78
2024/02/21 13:24:36;;;;;;;6.15;2.25;;;13.20;53.70;;;;;;4032025;29;20525;-78
2024/02/21 13:26:37;;;;;;;8.00;2.50;;;13.20;54.40;;;;;;4019837;29;20110;-79
2024/02/21 13:28:38;;;;;;;6.07;2.17;;;13.20;54.30;;;;;;4032508;29;20108;-79
2024/02/21 13:30:40;;;;;;;5.80;2.17;;;13.10;54.40;;;;;;4034635;29;20116;-78
2024/02/21 13:32:42;;;;;;;6.53;2.30;;;13.20;54.80;;;;;;4035024;29;20113;-77
2024/02/21 13:34:44;;;;;;;8.98;2.50;;;13.30;54.80;;;;;;4035233;29;20095;-77
2024/02/21 13:36:45;;;;;;;7.13;2.20;;;13.30;54.80;;;;;;4035231;29;20045;-78
2024/02/21 13:38:51;;;;;;;6.93;2.42;;;13.40;54.60;;;;;;4036845;29;20444;-78
2024/02/21 13:40:53;;;;;;;5.03;2.00;;;13.50;53.90;;;;;;4038139;29;20147;-79
2024/02/21 13:42:54;;;;;;;5.72;2.30;;;13.70;53.40;;;;;;4037929;29;20128;-78
2024/02/21 13:44:56;;;;;;;6.70;2.22;;;13.90;53.30;;;;;;4037882;29;20048;-78
2024/02/21 13:46:58;;;;;;;6.78;1.98;;;14.30;53.00;;;;;;4037729;29;20049;-78
2024/02/21 13:49:06;;;;;;;7.97;2.25;;;14.60;52.40;;;;;;4037716;29;20105;-78
2024/02/21 13:51:08;;;;;;;6.60;2.20;;;14.90;52.00;;;;;;4037719;29;20057;-79
2024/02/21 13:53:10;;;;;;;5.82;2.05;;;14.90;51.80;;;;;;4030686;29;20057;-80
2024/02/21 13:55:13;;;;;;;7.97;2.13;;;14.90;51.80;;;;;;4022066;29;20056;-80
2024/02/21 13:57:15;;;;;;;6.72;2.25;;;14.90;51.50;;;;;;4022493;29;20110;-80
2024/02/21 13:59:17;;;;;;;6.90;1.95;;;14.90;51.60;;;;;;4022170;29;20057;-80
2024/02/21 14:01:19;;;;;;;8.07;2.30;;;14.80;52.20;;;;;;4020211;29;20566;-79
2024/02/21 14:03:21;;;;;;;6.47;2.13;;;14.60;51.50;;;;;;4022405;29;20053;-78
2024/02/21 14:05:23;;;;;;;5.43;1.92;;;14.40;52.40;;;;;;4026664;29;20057;-77
2024/02/21 14:07:24;;;;;;;6.47;1.95;;;14.40;52.10;;;;;;4037305;29;20049;-78
2024/02/21 14:09:26;;;;;;;5.00;2.00;;;14.30;52.10;;;;;;4037693;29;20100;-78
2024/02/21 14:11:30;;;;;;;8.32;2.50;;;14.30;52.30;;;;;;4037451;29;20060;-78
2024/02/21 14:13:32;;;;;;;6.00;1.88;;;14.30;52.50;;;;;;4037533;29;20597;-80
2024/02/21 14:15:34;;;;;;;6.22;2.10;;;14.20;53.00;;;;;;4037530;29;20177;-76
2024/02/21 14:17:35;;;;;;;6.07;2.00;;;14.10;53.70;;;;;;4037485;29;20056;-79
2024/02/21 14:19:37;;;;;;;6.38;2.08;;;14.20;53.50;;;;;;4037323;29;20133;-79
2024/02/21 14:21:39;;;;;;;7.60;1.60;;;14.30;53.40;;;;;;4026978;29;20119;-80
2024/02/21 14:23:40;;;;;;;5.22;1.70;;;14.20;52.70;;;;;;4022013;29;20121;-76
2024/02/21 14:25:42;;;;;;;5.65;2.00;;;13.90;53.10;;;;;;4022181;29;20058;-79
2024/02/21 14:27:45;;;;;;;8.48;2.35;;;13.80;53.70;;;;;;4021967;29;20057;-79
2024/02/21 14:29:47;;;;;;;8.90;1.85;;;13.80;53.50;;;;;;4021759;29;20117;-79
2024/02/21 14:31:49;;;;;;;5.90;1.98;;;13.90;53.40;;;;;;4022104;29;20053;-78
2024/02/21 14:33:50;;;;;;;5.82;1.85;;;13.90;53.30;;;;;;4022187;29;20062;-77
2024/02/21 14:35:52;;;;;;;6.90;1.85;;;14.10;53.70;;;;;;4021989;29;20126;-78
2024/02/21 14:37:56;;;;;;;3.70;1.48;;;14.30;53.70;;;;;;4022169;29;20492;-76
2024/02/21 14:40:00;;;;;;;6.28;1.77;;;14.40;52.80;;;;;;4021949;29;20476;-77
2024/02/21 14:42:02;;;;;;;5.93;1.95;;;14.50;52.10;;;;;;4021863;29;20570;-79
2024/02/21 14:44:05;;;;;;;5.88;1.88;;;14.70;52.60;;;;;;4021729;29;20056;-79
2024/02/21 14:46:06;;;;;;;6.07;1.80;;;14.80;51.80;;;;;;4021608;29;20145;-80
2024/02/21 14:48:07;;;;;;;5.15;1.70;;;14.80;52.10;;;;;;4021871;29;20049;-79
2024/02/21 14:50:10;;;;;;;5.47;1.55;;;15.10;51.60;;;;;;4035429;29;20618;-77
2024/02/21 14:52:12;;;;;;;5.35;1.90;;;14.90;51.30;;;;;;4036934;29;20469;-80
2024/02/21 14:54:14;;;;;;;5.57;1.77;;;14.90;51.70;;;;;;4029607;29;20110;-80
2024/02/21 14:56:16;;;;;;;5.22;1.50;;;14.80;51.90;;;;;;4021718;29;20061;-79
2024/02/21 14:58:19;;;;;;;4.72;1.50;;;14.70;52.00;;;;;;4021541;29;20057;-80
2024/02/21 15:00:29;;;;;;;4.95;1.60;;;14.50;51.90;;;;;;4021736;29;20549;-79
2024/02/21 15:02:31;;;;;;;7.28;1.77;;;14.40;52.40;;;;;;4021409;29;20064;-79
2024/02/21 15:04:32;;;;;;;5.82;1.50;;;14.30;52.40;;;;;;4032101;29;20048;-79
2024/02/21 15:06:36;;;;;;;6.13;1.60;;;14.30;52.90;;;;;;4024088;29;20113;-79
2024/02/21 15:08:38;;;;;;;4.65;1.60;;;14.20;53.00;;;;;;4006287;29;20058;-79
2024/02/21 15:10:39;;;;;;;5.20;1.73;;;14.20;52.50;;;;;;4006690;29;20107;-79
2024/02/21 15:12:41;;;;;;;5.38;1.55;;;14.10;52.60;;;;;;4024495;29;20057;-80
2024/02/21 15:14:43;;;;;;;6.05;1.63;;;14.00;53.00;;;;;;4021438;29;20089;-77
2024/02/21 15:16:46;;;;;;;5.22;1.60;;;14.00;53.30;;;;;;4025395;29;20368;-81
2024/02/21 15:18:48;;;;;;;4.57;1.63;;;13.90;53.70;;;;;;4036500;29;20056;-81
2024/02/21 15:20:50;;;;;;;7.43;1.92;;;13.90;53.40;;;;;;4036750;29;20057;-79
2024/02/21 15:22:52;;;;;;;4.60;1.77;;;13.80;53.40;;;;;;4023852;29;20456;-79
2024/02/21 15:24:53;;;;;;;6.32;1.70;;;13.80;53.50;;;;;;4023570;29;20086;-77
2024/02/21 15:26:55;;;;;;;3.72;1.55;;;13.80;53.80;;;;;;4022857;29;20499;-80
2024/02/21 15:28:57;;;;;;;8.27;2.03;;;13.70;52.90;;;;;;4021745;29;20053;-78
2024/02/21 15:30:58;;;;;;;6.10;1.70;;;13.50;54.00;;;;;;4021945;29;20049;-80
2024/02/21 15:33:02;;;;;;;4.95;1.63;;;13.40;53.50;;;;;;4020936;29;20060;-78
2024/02/21 15:35:06;;;;;;;5.40;1.50;;;13.40;53.60;;;;;;4004416;29;20061;-80
2024/02/21 15:37:08;;;;;;;4.40;1.65;;;13.30;54.20;;;;;;4033397;29;20080;-79
2024/02/21 15:39:10;;;;;;;6.00;1.65;;;13.20;54.10;;;;;;4030173;29;20088;-78
2024/02/21 15:41:13;;;;;;;4.43;1.63;;;13.20;54.30;;;;;;4021107;29;20069;-80
2024/02/21 15:43:15;;;;;;;4.85;1.50;;;13.30;54.20;;;;;;4035602;29;20060;-80
2024/02/21 15:45:17;;;;;;;6.05;1.65;;;13.30;54.30;;;;;;4034567;29;20060;-79
2024/02/21 15:47:23;;;;;;;4.68;1.50;;;13.30;54.40;;;;;;4022204;29;20093;-76
2024/02/21 15:49:26;;;;;;;4.65;1.60;;;13.30;54.80;;;;;;4025660;29;20049;-78
2024/02/21 15:51:29;;;;;;;3.55;1.58;;;13.20;55.20;;;;;;4036123;29;20494;-79
2024/02/21 15:53:31;;;;;;;4.97;1.85;;;13.30;55.50;;;;;;4032473;29;20060;-80
2024/02/21 15:55:33;;;;;;;6.13;1.70;;;13.20;55.40;;;;;;4020644;29;20491;-78
2024/02/21 15:57:35;;;;;;;5.05;1.70;;;13.20;55.50;;;;;;4021080;29;20109;-79
2024/02/21 15:59:38;;;;;;;6.25;1.70;;;13.20;56.00;;;;;;4027834;29;20104;-79
2024/02/21 16:01:42;;;;;;;6.38;1.98;;;13.20;55.80;;;;;;4028192;29;20061;-80
2024/02/21 16:03:44;;;;;;;4.88;1.63;;;13.10;55.80;;;;;;4020549;29;20049;-80
2024/02/21 16:05:48;;;;;;;5.72;1.67;;;13.10;55.80;;;;;;4025152;29;20048;-80
2024/02/21 16:07:49;;;;;;;4.78;1.83;;;13.10;56.20;;;;;;4036565;29;20056;-79
2024/02/21 16:09:51;;;;;;;7.00;2.00;;;13.10;57.10;;;;;;4035778;29;20557;-78
2024/02/21 16:11:54;;;;;;;7.18;1.85;;;13.00;56.60;;;;;;4035823;29;20108;-81
2024/02/21 16:13:56;;;;;;;8.63;2.15;;;13.00;56.80;;;;;;4035761;29;20056;-79
2024/02/21 16:15:58;;;;;;;6.78;2.28;;;13.00;56.90;;;;;;4036113;29;20109;-78
2024/02/21 16:17:59;;;;;;;5.65;2.03;;;13.00;57.20;;;;;;4022056;29;20099;-79
2024/02/21 16:20:01;;;;;;;9.20;2.30;;;12.90;57.40;;;;;;4020311;29;20109;-81
2024/02/21 16:22:05;;;;;;;9.77;2.67;;;12.90;57.70;;;;;;4020658;29;20049;-79
2024/02/21 16:24:07;;;;;;;6.35;2.10;;;12.80;57.80;;;;;;4005298;29;20097;-80
2024/02/21 16:26:10;;;;;;;7.22;2.20;;;12.80;58.10;;;;;;4005380;29;20062;-78
2024/02/21 16:28:11;;;;;;;6.35;2.38;;;12.80;58.70;;;;;;4005593;29;20327;-79
2024/02/21 16:30:16;;;;;;;7.40;2.58;;;12.80;58.10;;;;;;4033603;29;20049;-80
2024/02/21 16:32:18;;;;;;;7.57;2.40;;;12.70;58.30;;;;;;4034086;29;20052;-80
2024/02/21 16:34:20;;;;;;;6.03;2.30;;;12.70;58.60;;;;;;4020344;29;20053;-80
2024/02/21 16:36:23;;;;;;;8.40;2.55;;;12.70;58.70;;;;;;4004058;29;20126;-81
2024/02/21 16:38:27;;;;;;;7.82;3.03;;;12.60;59.00;;;;;;4020898;29;20064;-80
2024/02/21 16:40:28;;;;;;;7.40;2.75;;;12.60;59.10;;;;;;4022031;29;20065;-81